Aviation Digital Data Service (ADDS)

Output produced by METARs form (1022 UTC 19 January 2019)
found at http://www.aviationweather.gov/metar/data/
 
K3AU 191015Z AUTO 35024G30KT 10SM OVC013 M07/M08 A3006 RMK AO2
K1K1 191015Z AUTO 10SM OVC013 M08/M10 A3006 RMK AO2 T10801100
KCNU 190952Z AUTO 35023G35KT 10SM OVC013 M04/M06 A2994 RMK AO2 PK WND 35037/0939 SLP143 T10391061
KCNU 190703Z 1907/2006 35024G32KT 5SM -SN OVC011 
     FM190900 35023G31KT P6SM OVC020 
     FM192200 34017G25KT P6SM SCT050 
     FM200500 35007KT P6SM FEW250
       
KCFV 191011Z AUTO 34018G38KT 9SM OVC014 M03/M06 A2990 RMK AO2 PK WND 35039/0959 T10331056
KCBK 191015Z AUTO 36015G19KT 10SM OVC029 M08/M11 A3020 RMK AO2
KCNK 190955Z AUTO 35015G28KT 10SM BKN018 OVC026 M11/M14 A3020 RMK AO2 PK WND 36034/0916 SNE04 SLP247 P0000 T11061139 $
KDDC 190952Z AUTO 35025G39KT 10SM BKN013 M07/M10 A3012 RMK AO2 PK WND 36039/0943 SLP222 T10671100 $
KDDC 190520Z 1906/2006 35026G38KT P6SM OVC012 
     FM190900 35022G32KT P6SM BKN025 
     FM191000 35022G32KT P6SM SCT050 
     FM192000 35012KT P6SM SKC
       
KEQA 191015Z AUTO 35028G34KT 7SM OVC012 M06/M08 A3002 RMK AO2
KEHA 191015Z AUTO 34019G24KT 10SM SCT011 M02/M03 A3014 RMK AO2 T10231032
KEMP 191012Z AUTO 34023G34KT 2 1/2SM -SN BR OVC013 M08/M09 A3003 RMK AO2 PK WND 34037/0954 P0000 T10781094
K13K 191015Z AUTO 35029G35KT 7SM -SN OVC012 M07/M09 A3002 RMK AO2 T10701091
KGCK 190954Z AUTO 35016KT 10SM CLR M07/M09 A3015 RMK AO2 PK WND 34027/0907 SLP238 T10671094 $
KGCK 190818Z 1908/2006 34018G25KT P6SM SCT015 
     TEMPO 1909/1913 BKN015 
     FM192100 34007KT P6SM FEW200
       
KGLD 190953Z AUTO 35019G25KT 10SM OVC010 M07/M08 A3016 RMK AO2 SLP247 T10671083 $
KGLD 191007Z 1910/2006 36017G25KT P6SM OVC014 
     FM191200 35013KT P6SM BKN060 
     FM191500 34006KT P6SM FEW250
       
KGBD 190956Z AUTO 35026G31KT 9SM -SN OVC017 M08/M10 A3015 RMK AO2 PK WND 36037/0928 SLP231 P0000 T10781100 FZRANO
KGBD 190532Z 1906/2006 36024G33KT P6SM OVC012 
     FM190900 35023G31KT P6SM BKN023 
     FM191000 35022G30KT P6SM BKN016 
     FM191200 35020G28KT P6SM SCT045 
     FM192100 35010KT P6SM FEW250 AMD LTD TO CLD VIS AND WIND
       
KHYS 190956Z AUTO 36020G29KT 10SM FEW018 M09/M12 A3020 RMK AO2 PK WND 36034/0907 SLP252 T10891117 FZRANO
KHYS 190820Z 1908/2006 35018G23KT P6SM BKN016 
     FM191200 35015G22KT P6SM SCT040 
     FM191600 35013KT P6SM FEW110 
     FM192200 34006KT P6SM FEW250
       
KHLC 190953Z AUTO 35018G26KT 10SM FEW019 M08/M11 A3022 RMK AO2 PK WND 34028/0855 SLP263 T10831111 $
KHQG 191015Z AUTO 36022G27KT 10SM OVC016 M03/M05 A3016 RMK AO2 T10311054
KHUT 190952Z AUTO 35019G31KT 8SM -SN OVC016 M07/M10 A3010 RMK AO2 PK WND 35035/0940 SNB0856 SLP199 P0000 T10721100
KHUT 190532Z 1906/2006 35026G35KT P6SM OVC010 
     FM191000 35025G33KT P6SM BKN026 
     FM191200 35022G30KT P6SM BKN050 
     FM192100 35013KT P6SM FEW160 
     FM200200 36006KT P6SM SKC
       
KIDP 190955Z AUTO 34029G38KT 10SM OVC013 M04/M06 A2994 RMK AO2 T10371060
KK88 191015Z AUTO 34029G36KT 10SM OVC012 M05/M06 A2995 RMK AO1 T10521064
KJHN 191015Z AUTO 33015KT 10SM OVC015 M02/M06 A3017 RMK AO2 T10251059
KLWC 190952Z AUTO 34021G33KT 4SM HZ OVC012 M07/M09 A3003 RMK AO2 PK WND 34040/0940 PRESRR SLP178 T10671094
KLBL 190956Z AUTO 35026G31KT 10SM CLR M04/M07 A3014 RMK AO2 PK WND 35031/0954 SLP228 T10441072 FZRANO
KLBL 190813Z 1908/2006 35022G27KT P6SM FEW017 
     TEMPO 1910/1913 BKN017 
     FM192200 36008KT P6SM FEW200
       
KLYO 191015Z AUTO 36027G32KT 10SM -SN OVC015 M09/M12 A3014 RMK AO2 T10861115
KMHK 190952Z AUTO 36011G21KT 3SM -SN OVC016 M08/M11 A3016 RMK AO2 PK WND 02028/0907 SLP225 P0000 T10831111 $
KMHK 190520Z 1906/2006 01016G24KT P6SM OVC012 
     FM191200 01015G22KT P6SM OVC025 
     FM191800 36013KT P6SM SCT050 
     FM200000 35005KT P6SM FEW250
       
KMYZ 191015Z AUTO 36021G25KT 10SM -RA OVC015 M10/M12 A3017 RMK AO2
KEWK 190956Z AUTO 35033G40KT 9SM -SN OVC013 M08/M11 A3005 RMK AO2 PK WND 35041/0939 SLP188 P0000 T10831106 FZRANO
KOIN 191015Z AUTO 33010KT 10SM BKN039 M09/M11 A3027 RMK AO1 T10931115
KOJC 190953Z AUTO 36016G30KT 10SM OVC012 M06/M08 A2996 RMK AO2 PK WND 34030/0855 SLP156 T10611078
KIXD 190953Z AUTO 34022KT 10SM OVC011 M06/M07 A2998 RMK AO2 PK WND 35034/0854 SLP163 T10561072
KIXD 190604Z 1906/2006 36020G30KT 2SM -SN BLSN BR OVC008 
     TEMPO 1906/1908 1SM -SN BLSN 
     FM190900 36020G30KT 5SM BR OVC010 
     FM191100 36022G35KT 6SM BR BKN015 
     FM191700 35015G24KT P6SM BKN015 
     FM192200 35015G24KT P6SM SCT020 
     FM200100 35010KT P6SM SCT250
       
KOWI 191015Z AUTO 35022G31KT 10SM -UP OVC011 M06/M07 A3000 RMK AO2
KPPF 190952Z AUTO 36023G37KT 10SM OVC013 M03/M06 A2992 RMK AO2 PK WND 36037/0910 SLP134 T10331056
KPTS 191015Z AUTO 35016G24KT 10SM OVC012 M03/M04 A2985 RMK AO2 T10271045
KPTT 190910Z AUTO 36027G35KT 10SM OVC015 M06/M09 A3010 RMK AO2 T10631093
KRSL 190953Z AUTO 35023G29KT 10SM OVC018 M09/M11 A3018 RMK AO2 PK WND 35033/0902 SLP246 T10891106 $
KRSL 190532Z 1906/2006 35025G33KT P6SM OVC011 
     FM190900 35022G30KT P6SM BKN023 
     FM191200 35018G26KT P6SM SCT050 
     FM192200 34008KT P6SM FEW250
       
KSYF 191015Z AUTO 35010KT 10SM OVC012 M06/M09 A3021 RMK AO2 T10651093
KSLN 190953Z AUTO 36023G31KT 7SM -SN OVC018 M08/M11 A3019 RMK AO2 PK WND 34036/0859 SNB0858 SLP236 P0000 T10831111 $
KSLN 190532Z 1906/2006 35026G34KT P6SM OVC011 
     FM190900 35023G31KT P6SM BKN023 
     FM191100 35023KT P6SM BKN050 
     FM191900 35014G22KT P6SM SCT110 
     FM200300 VRB03KT P6SM FEW250
       
K19S 191015Z AUTO 34021G29KT 10SM CLR M05/M08 A3015 RMK AO2 T10531082
K3K3 191015Z AUTO 34013G18KT 10SM OVC014 M03/M06 A3019 RMK AO2
KFOE 190953Z AUTO 35018G35KT 4SM -SN OVC012 M08/M11 A3004 RMK AO2 PK WND 36036/0942 UPE36SNB16E19B36 SLP182 P0000 T10781106
KFOE 190520Z 1906/2006 35020G29KT 2SM -SN BR OVC012 
     FM190730 35022G32KT 6SM BLSN OVC012 
     FM191500 34020G28KT P6SM BKN025 
     FM192000 34016G21KT P6SM SCT050 
     FM200000 34009KT P6SM FEW250
       
KTOP 190953Z AUTO 34017G29KT 5SM HZ OVC015 M08/M11 A3007 RMK AO2 PK WND 34033/0943 SLP191 T10781106 PWINO FZRANO $
KTOP 190520Z 1906/2006 35020G28KT 2SM -SN BR OVC012 
     FM190700 34021G30KT 6SM BLSN OVC013 
     FM191500 34018G26KT P6SM BKN025 
     FM192000 34014G20KT P6SM SCT050 
     FM200000 34007KT P6SM FEW250
       
KULS 191015Z AUTO 35020G24KT 10SM OVC016 M03/M05 A3016 RMK AO2
KBEC 191015Z AUTO 35021G28KT 10SM OVC015 M07/M10 A3005 RMK AO2 T10751100
KAAO 191004Z AUTO 35028G40KT 9SM OVC015 M08/M09 A3005 RMK AO2 PK WND 35040/0957 T10781094 $
KICT 190953Z 35022G33KT 10SM OVC016 M06/M08 A3006 RMK AO2 PK WND 35041/0904 UPB20E49 SLP189 P0000 T10611083 $
KICT 190532Z 1906/2006 35028G37KT P6SM VCSH OVC010 
     FM190900 35026G35KT P6SM OVC013 
     FM191000 35026G34KT P6SM OVC027 
     FM191200 35024G33KT P6SM OVC060 
     FM192300 35014KT P6SM FEW230